Sea-land Charger — WDB9948 — position and weather

sailwx.info

Track history (hours):
 
Tides and Currents Weather Stations Pressure Air Temp Water Temp Dewpoint Dewpoint Depression Visibility Wind Speed Wind Dir Waves Ship Positions

Sea-land Charger

Owner: MAERSK LINE, LIMITED, NORFOLK, VA. More information available from US FCC via Universal Licensing System.

Last reported at 2015-May-21 14:05 UTC. Time now 2015-May-24 13:22 UTC.
Position N 35°58' E 123°56'.

Type: Cargo ship. MMSI: 303279000.

Date/timePositionNaut miles runAvg speedWind from/ knotsBaromVisibWave heightAir tempDewpointWater temp
2015-May-21 14:05N 35°58' E 123°56'3419.7
2015-May-21 12:22N 36°29' E 123°40'1718.8
2015-May-21 11:29N 36°46' E 123°38'1718.6
2015-May-21 10:34N 37°02' E 123°30'3617.2
2015-May-21 08:27N 37°35' E 123°14'2420.1
2015-May-21 07:15N 37°52' E 122°52'1520.4
2015-May-21 06:31N 38°01' E 122°37'1919.8
2015-May-21 05:33N 38°11' E 122°16'1919.2
2015-May-21 04:33N 38°17' E 121°53'1918.7
2015-May-21 03:33N 38°22' E 121°30'1717.4
2015-May-21 02:33N 38°27' E 121°09'1615.0
2015-May-21 01:28N 38°34' E 120°50'1212.6
2015-May-21 00:33N 38°38' E 120°36'2019.1
2015-May-20 23:32N 38°40' E 120°11'2020.7
2015-May-20 22:33N 38°40' E 119°45'2019.8
2015-May-20 21:33N 38°44' E 119°20'5816.8
2015-May-20 18:05N 38°55' E 118°07'4 6.7
2015-May-20 17:29N 38°56' E 118°02'1010.8
2015-May-20 16:33N 38°58' E 117°49'3 2.6
2015-May-20 15:33N 38°60' E 117°47'0 0.0
2015-May-20 14:33N 38°60' E 117°47'0 0.0
2015-May-20 13:33N 38°60' E 117°47'0 0.0
2015-May-20 12:27N 38°60' E 117°47'0 0.0
2015-May-20 11:26N 38°60' E 117°47'0 0.0
2015-May-20 10:33N 38°60' E 117°47'0 0.0
2015-May-20 09:33N 38°60' E 117°47'0 0.0
2015-May-20 08:33N 38°60' E 117°47'0 0.0
2015-May-20 07:26N 38°60' E 117°47'0 0.0
2015-May-20 06:33N 38°60' E 117°47'0 0.0
2015-May-20 05:33N 38°60' E 117°47'0 0.0
2015-May-20 04:33N 38°60' E 117°47'0 0.0
2015-May-20 03:33N 38°60' E 117°47'0 0.0
2015-May-20 02:27N 38°60' E 117°47'0 0.0
2015-May-20 01:32N 38°60' E 117°47'0 0.0
2015-May-20 00:32N 38°60' E 117°47'0 0.0
2015-May-19 23:33N 38°60' E 117°47'0 0.0
2015-May-19 22:33N 38°60' E 117°47'0 0.0
2015-May-19 21:28N 38°60' E 117°47'0 0.0
2015-May-19 20:22N 38°60' E 117°47'0 0.0
2015-May-19 19:22N 38°60' E 117°47'0 0.0
2015-May-19 18:28N 38°60' E 117°47'0 0.0
2015-May-19 17:22N 38°60' E 117°47'0 0.0
2015-May-19 16:16N 38°60' E 117°47'0 0.0
2015-May-19 15:28N 38°60' E 117°47'0 0.0
2015-May-19 14:16N 38°60' E 117°47'0 0.0
2015-May-19 13:28N 38°60' E 117°47'0 0.0
2015-May-19 12:28N 38°60' E 117°47'0 0.0
2015-May-19 11:28N 38°60' E 117°47'0 0.0
2015-May-19 10:28N 38°60' E 117°47'0 0.0
2015-May-19 09:28N 38°60' E 117°47'0 0.0
2015-May-19 08:28N 38°60' E 117°47'0 0.0
2015-May-19 07:22N 38°60' E 117°47'0 0.0
2015-May-19 06:16N 38°60' E 117°47'0 0.0
2015-May-19 05:22N 38°60' E 117°47'0 0.0
2015-May-19 04:04N 38°60' E 117°47'0 0.0
2015-May-19 03:16N 38°60' E 117°47'23 2.3
2015-May-18 17:16N 38°50' E 118°13'22210.2
2015-May-17 19:26N 37°51' E 122°45'1314.3
2015-May-17 18:32N 37°45' E 123°00'1313.8
2015-May-17 17:34N 37°38' E 123°14'1414.0
2015-May-17 16:33N 37°24' E 123°15'1413.8
2015-May-17 15:33N 37°10' E 123°14'1312.9
2015-May-17 14:33N 36°57' E 123°10'1514.5
2015-May-17 13:33N 36°49' E 122°55'1514.7
2015-May-17 12:33N 36°39' E 122°42'1514.9
2015-May-17 11:33N 36°26' E 122°32'1715.9
2015-May-17 10:30N 36°18' E 122°14'4615.4
2015-May-17 07:31N 36°00' E 121°21'1514.4
2015-May-17 06:30N 35°56' E 121°04'1514.1
2015-May-17 05:25N 35°57' E 120°45'161 7.0
2015-May-16 06:32N 34°22' E 123°25'1414.0
2015-May-16 05:33N 34°13' E 123°38'1313.3
2015-May-16 04:33N 34°06' E 123°51'1313.3
2015-May-16 03:33N 33°53' E 123°55'1413.7
2015-May-16 02:33N 33°40' E 123°57'1313.6
2015-May-16 01:33N 33°26' E 123°56'1312.9
2015-May-16 00:33N 33°13' E 123°58'1312.9
2015-May-15 23:32N 33°00' E 123°58'1212.3
2015-May-15 22:33N 32°48' E 123°59'1211.3
2015-May-15 21:31N 32°36' E 123°60'1010.7
2015-May-15 20:33N 32°26' E 123°60'49312.3
2015-May-14 04:29N 25°01' E 119°58'1414.8
2015-May-14 03:33N 24°53' E 119°45'1913.7
2015-May-14 02:08N 24°44' E 119°27'813.8
2015-May-14 01:33N 24°41' E 119°19'1414.0
2015-May-14 00:33N 24°34' E 119°05'1414.2
2015-May-13 23:33N 24°26' E 118°52'1614.4
2015-May-13 22:27N 24°17' E 118°38'1314.6
2015-May-13 21:33N 24°10' E 118°26'1312.9
2015-May-13 20:33N 24°14' E 118°12'9 9.5
2015-May-13 19:33N 24°22' E 118°08'7 6.9
2015-May-13 18:33N 24°27' E 118°02'0 0.0
2015-May-13 17:07N 24°27' E 118°02'0 0.0
2015-May-13 16:31N 24°27' E 118°02'0 0.0
2015-May-13 15:31N 24°27' E 118°02'0 0.0
2015-May-13 13:31N 24°27' E 118°02'0 0.0
2015-May-13 12:25N 24°27' E 118°02'0 0.0
2015-May-13 11:31N 24°27' E 118°02'0 0.0
2015-May-13 10:07N 24°27' E 118°02'0 0.0
2015-May-13 09:31N 24°27' E 118°02'0 0.0
2015-May-13 08:31N 24°27' E 118°02'0 0.0
2015-May-13 06:19N 24°27' E 118°02'0 0.0
2015-May-13 04:25N 24°27' E 118°02'0 0.0
2015-May-13 03:13N 24°27' E 118°02'0 0.5
2015-May-13 02:33N 24°26' E 118°02'6 5.7
2015-May-13 01:33N 24°23' E 118°07'9 8.5
2015-May-13 00:33N 24°15' E 118°11'1312.7
2015-May-12 23:33N 24°08' E 118°22'1212.4
2015-May-12 22:33N 23°57' E 118°16'1413.8
2015-May-12 21:33N 23°45' E 118°08'1414.4
2015-May-12 20:33N 23°33' E 117°60'3114.6
2015-May-12 18:27N 23°13' E 117°34'3013.6
2015-May-12 16:14N 22°47' E 117°18'  
Track history (hours):
 
Tides and Currents Weather Stations Pressure Air Temp Water Temp Dewpoint Dewpoint Depression Visibility Wind Speed Wind Dir Waves Ship Positions

Sea-land Charger

Owner: MAERSK LINE, LIMITED, NORFOLK, VA. More information available from US FCC via Universal Licensing System.

Last reported at 2015-May-21 14:05 UTC. Time now 2015-May-24 13:22 UTC.
Position N 35°58' E 123°56'.

Type: Cargo ship. MMSI: 303279000.

Date/timePositionNaut miles runAvg speedWind from/ knotsBaromVisibWave heightAir tempDewpointWater temp
2015-May-21 14:05N 35°58' E 123°56'3419.7
2015-May-21 12:22N 36°29' E 123°40'1718.8
2015-May-21 11:29N 36°46' E 123°38'1718.6
2015-May-21 10:34N 37°02' E 123°30'3617.2
2015-May-21 08:27N 37°35' E 123°14'2420.1
2015-May-21 07:15N 37°52' E 122°52'1520.4
2015-May-21 06:31N 38°01' E 122°37'1919.8
2015-May-21 05:33N 38°11' E 122°16'1919.2
2015-May-21 04:33N 38°17' E 121°53'1918.7
2015-May-21 03:33N 38°22' E 121°30'1717.4
2015-May-21 02:33N 38°27' E 121°09'1615.0
2015-May-21 01:28N 38°34' E 120°50'1212.6
2015-May-21 00:33N 38°38' E 120°36'2019.1
2015-May-20 23:32N 38°40' E 120°11'2020.7
2015-May-20 22:33N 38°40' E 119°45'2019.8
2015-May-20 21:33N 38°44' E 119°20'5816.8
2015-May-20 18:05N 38°55' E 118°07'4 6.7
2015-May-20 17:29N 38°56' E 118°02'1010.8
2015-May-20 16:33N 38°58' E 117°49'3 2.6
2015-May-20 15:33N 38°60' E 117°47'0 0.0
2015-May-20 14:33N 38°60' E 117°47'0 0.0
2015-May-20 13:33N 38°60' E 117°47'0 0.0
2015-May-20 12:27N 38°60' E 117°47'0 0.0
2015-May-20 11:26N 38°60' E 117°47'0 0.0
2015-May-20 10:33N 38°60' E 117°47'0 0.0
2015-May-20 09:33N 38°60' E 117°47'0 0.0
2015-May-20 08:33N 38°60' E 117°47'0 0.0
2015-May-20 07:26N 38°60' E 117°47'0 0.0
2015-May-20 06:33N 38°60' E 117°47'0 0.0
2015-May-20 05:33N 38°60' E 117°47'0 0.0
2015-May-20 04:33N 38°60' E 117°47'0 0.0
2015-May-20 03:33N 38°60' E 117°47'0 0.0
2015-May-20 02:27N 38°60' E 117°47'0 0.0
2015-May-20 01:32N 38°60' E 117°47'0 0.0
2015-May-20 00:32N 38°60' E 117°47'0 0.0
2015-May-19 23:33N 38°60' E 117°47'0 0.0
2015-May-19 22:33N 38°60' E 117°47'0 0.0
2015-May-19 21:28N 38°60' E 117°47'0 0.0
2015-May-19 20:22N 38°60' E 117°47'0 0.0
2015-May-19 19:22N 38°60' E 117°47'0 0.0
2015-May-19 18:28N 38°60' E 117°47'0 0.0
2015-May-19 17:22N 38°60' E 117°47'0 0.0
2015-May-19 16:16N 38°60' E 117°47'0 0.0
2015-May-19 15:28N 38°60' E 117°47'0 0.0
2015-May-19 14:16N 38°60' E 117°47'0 0.0
2015-May-19 13:28N 38°60' E 117°47'0 0.0
2015-May-19 12:28N 38°60' E 117°47'0 0.0
2015-May-19 11:28N 38°60' E 117°47'0 0.0
2015-May-19 10:28N 38°60' E 117°47'0 0.0
2015-May-19 09:28N 38°60' E 117°47'0 0.0
2015-May-19 08:28N 38°60' E 117°47'0 0.0
2015-May-19 07:22N 38°60' E 117°47'0 0.0
2015-May-19 06:16N 38°60' E 117°47'0 0.0
2015-May-19 05:22N 38°60' E 117°47'0 0.0
2015-May-19 04:04N 38°60' E 117°47'0 0.0
2015-May-19 03:16N 38°60' E 117°47'23 2.3
2015-May-18 17:16N 38°50' E 118°13'22210.2
2015-May-17 19:26N 37°51' E 122°45'1314.3
2015-May-17 18:32N 37°45' E 123°00'1313.8
2015-May-17 17:34N 37°38' E 123°14'1414.0
2015-May-17 16:33N 37°24' E 123°15'1413.8
2015-May-17 15:33N 37°10' E 123°14'1312.9
2015-May-17 14:33N 36°57' E 123°10'1514.5
2015-May-17 13:33N 36°49' E 122°55'1514.7
2015-May-17 12:33N 36°39' E 122°42'1514.9
2015-May-17 11:33N 36°26' E 122°32'1715.9
2015-May-17 10:30N 36°18' E 122°14'4615.4
2015-May-17 07:31N 36°00' E 121°21'1514.4
2015-May-17 06:30N 35°56' E 121°04'1514.1
2015-May-17 05:25N 35°57' E 120°45'161 7.0
2015-May-16 06:32N 34°22' E 123°25'1414.0
2015-May-16 05:33N 34°13' E 123°38'1313.3
2015-May-16 04:33N 34°06' E 123°51'1313.3
2015-May-16 03:33N 33°53' E 123°55'1413.7
2015-May-16 02:33N 33°40' E 123°57'1313.6
2015-May-16 01:33N 33°26' E 123°56'1312.9
2015-May-16 00:33N 33°13' E 123°58'1312.9
2015-May-15 23:32N 33°00' E 123°58'1212.3
2015-May-15 22:33N 32°48' E 123°59'1211.3
2015-May-15 21:31N 32°36' E 123°60'1010.7
2015-May-15 20:33N 32°26' E 123°60'49312.3
2015-May-14 04:29N 25°01' E 119°58'1414.8
2015-May-14 03:33N 24°53' E 119°45'1913.7
2015-May-14 02:08N 24°44' E 119°27'813.8
2015-May-14 01:33N 24°41' E 119°19'1414.0
2015-May-14 00:33N 24°34' E 119°05'1414.2
2015-May-13 23:33N 24°26' E 118°52'1614.4
2015-May-13 22:27N 24°17' E 118°38'1314.6
2015-May-13 21:33N 24°10' E 118°26'1312.9
2015-May-13 20:33N 24°14' E 118°12'9 9.5
2015-May-13 19:33N 24°22' E 118°08'7 6.9
2015-May-13 18:33N 24°27' E 118°02'0 0.0
2015-May-13 17:07N 24°27' E 118°02'0 0.0
2015-May-13 16:31N 24°27' E 118°02'0 0.0
2015-May-13 15:31N 24°27' E 118°02'0 0.0
2015-May-13 13:31N 24°27' E 118°02'0 0.0
2015-May-13 12:25N 24°27' E 118°02'0 0.0
2015-May-13 11:31N 24°27' E 118°02'0 0.0
2015-May-13 10:07N 24°27' E 118°02'0 0.0
2015-May-13 09:31N 24°27' E 118°02'0 0.0
2015-May-13 08:31N 24°27' E 118°02'0 0.0
2015-May-13 06:19N 24°27' E 118°02'0 0.0
2015-May-13 04:25N 24°27' E 118°02'0 0.0
2015-May-13 03:13N 24°27' E 118°02'0 0.5
2015-May-13 02:33N 24°26' E 118°02'6 5.7
2015-May-13 01:33N 24°23' E 118°07'9 8.5
2015-May-13 00:33N 24°15' E 118°11'1312.7
2015-May-12 23:33N 24°08' E 118°22'1212.4
2015-May-12 22:33N 23°57' E 118°16'1413.8
2015-May-12 21:33N 23°45' E 118°08'1414.4
2015-May-12 20:33N 23°33' E 117°60'3114.6
2015-May-12 18:27N 23°13' E 117°34'3013.6
2015-May-12 16:14N 22°47' E 117°18'  

Dump ship's entire track history